Time;durP1;ratioP1;P1;durP2;ratioP2;P2;SDS_P1;SDS_P2;PMS_P1;PMS_P2;Temp;Humidity;BMP_temperature;BMP_pressure;BME280_temperature;BME280_humidity;BME280_pressure;Samples;Min_cycle;Max_cycle;Signal;HPM_P1;HPM_P2
2021/05/04 00:01:12;;;;;;;4.35;2.97;;;6.20;99.90;;;;;;5053860;28;20052;-82
2021/05/04 00:03:37;;;;;;;5.85;3.22;;;6.20;99.90;;;;;;5052717;28;20025;-82
2021/05/04 00:06:04;;;;;;;6.10;3.00;;;6.40;99.90;;;;;;5054425;28;20155;-82
2021/05/04 00:08:29;;;;;;;4.03;2.80;;;6.30;99.90;;;;;;5053950;28;20040;-82
2021/05/04 00:10:55;;;;;;;3.40;2.72;;;6.20;99.90;;;;;;5052678;28;20427;-82
2021/05/04 00:13:21;;;;;;;4.68;3.10;;;6.30;99.90;;;;;;5052347;28;20028;-82
2021/05/04 00:15:47;;;;;;;4.30;3.00;;;6.40;99.90;;;;;;5054319;28;20039;-82
2021/05/04 00:18:13;;;;;;;6.47;3.42;;;6.40;99.90;;;;;;5053783;28;20519;-82
2021/05/04 00:20:39;;;;;;;5.05;3.22;;;6.50;99.90;;;;;;5052391;28;20017;-82
2021/05/04 00:23:04;;;;;;;4.30;2.58;;;6.50;99.90;;;;;;5052447;28;20024;-82
2021/05/04 00:25:30;;;;;;;5.95;3.08;;;6.50;99.90;;;;;;5052443;28;20108;-82
2021/05/04 00:27:56;;;;;;;7.28;3.25;;;6.20;99.90;;;;;;5052405;28;20032;-82
2021/05/04 00:30:22;;;;;;;5.82;3.88;;;6.30;99.90;;;;;;5052537;28;20036;-82
2021/05/04 00:32:47;;;;;;;8.27;3.50;;;6.10;99.90;;;;;;5038796;28;20041;-82
2021/05/04 00:35:13;;;;;;;4.82;2.95;;;6.30;99.90;;;;;;5033389;28;20499;-82
2021/05/04 00:37:39;;;;;;;5.80;3.22;;;6.30;99.90;;;;;;5033572;28;20424;-82
2021/05/04 00:40:05;;;;;;;8.95;3.35;;;6.40;99.90;;;;;;5015759;28;20469;-82
2021/05/04 00:42:31;;;;;;;4.88;2.97;;;6.40;99.90;;;;;;5033321;28;20032;-82
2021/05/04 00:44:56;;;;;;;4.97;2.97;;;6.40;99.90;;;;;;5015610;28;20025;-82
2021/05/04 00:47:22;;;;;;;7.68;3.33;;;6.30;99.90;;;;;;5015651;28;20079;-82
2021/05/04 00:49:48;;;;;;;4.78;3.25;;;6.50;99.90;;;;;;5015474;28;20055;-82
2021/05/04 00:52:14;;;;;;;6.65;3.30;;;6.50;99.90;;;;;;5033364;28;20038;-82
2021/05/04 00:54:41;;;;;;;4.63;3.13;;;6.30;99.90;;;;;;5033399;28;20033;-82
2021/05/04 00:57:08;;;;;;;4.95;3.38;;;6.30;99.90;;;;;;5015876;28;20118;-82
2021/05/04 00:59:36;;;;;;;6.18;2.95;;;6.00;99.90;;;;;;5033774;28;20025;-82
2021/05/04 01:02:02;;;;;;;5.35;3.17;;;6.10;99.90;;;;;;5033307;28;20473;-82
2021/05/04 01:04:28;;;;;;;5.40;3.40;;;6.10;99.90;;;;;;5033336;28;20484;-82
2021/05/04 01:06:54;;;;;;;4.07;3.22;;;6.00;99.90;;;;;;5033500;28;20018;-82
2021/05/04 01:09:20;;;;;;;8.10;3.05;;;6.30;99.90;;;;;;5018700;28;20033;-82
2021/05/04 01:11:46;;;;;;;4.72;3.00;;;6.30;99.90;;;;;;5036999;28;20029;-82
2021/05/04 01:14:13;;;;;;;6.65;3.13;;;6.30;99.90;;;;;;5036868;28;20038;-82
2021/05/04 01:16:45;;;;;;;6.38;3.22;;;6.30;99.90;;;;;;5019142;28;20030;-82
2021/05/04 01:19:11;;;;;;;5.32;3.03;;;6.30;99.90;;;;;;5019092;28;20499;-82
2021/05/04 01:21:37;;;;;;;3.70;2.83;;;6.40;99.90;;;;;;5019229;28;20112;-82
2021/05/04 01:24:03;;;;;;;7.13;3.50;;;6.10;99.90;;;;;;5036775;28;20024;-82
2021/05/04 01:26:29;;;;;;;4.80;3.00;;;6.30;99.90;;;;;;5036976;28;20053;-82
2021/05/04 01:28:55;;;;;;;4.93;2.97;;;6.50;99.90;;;;;;5019084;28;20022;-82
2021/05/04 01:31:20;;;;;;;3.63;2.72;;;6.70;99.90;;;;;;5018849;28;20083;-82
2021/05/04 01:33:46;;;;;;;4.88;3.05;;;6.80;99.90;;;;;;5037013;28;20029;-82
2021/05/04 01:36:12;;;;;;;6.13;3.10;;;6.90;99.90;;;;;;5019066;28;20122;-82
2021/05/04 01:38:38;;;;;;;4.95;3.40;;;6.80;99.90;;;;;;5018824;28;20091;-82
2021/05/04 01:41:04;;;;;;;7.10;2.88;;;7.00;99.90;;;;;;5037142;28;20453;-82
2021/05/04 01:43:30;;;;;;;4.97;3.15;;;7.00;99.90;;;;;;5018906;28;20036;-82
2021/05/04 01:45:56;;;;;;;4.75;3.50;;;6.90;99.90;;;;;;5018911;28;20071;-82
2021/05/04 01:48:21;;;;;;;4.90;3.38;;;6.90;99.90;;;;;;5036661;28;20029;-82
2021/05/04 01:50:47;;;;;;;5.43;3.00;;;6.90;99.90;;;;;;5018773;28;20026;-82
2021/05/04 01:53:13;;;;;;;5.20;3.22;;;7.10;99.90;;;;;;5018641;28;20056;-82
2021/05/04 01:55:38;;;;;;;8.75;3.28;;;7.00;99.90;;;;;;5037521;28;20366;-82
2021/05/04 01:58:04;;;;;;;4.50;3.17;;;7.10;99.90;;;;;;5036681;28;20032;-82
2021/05/04 02:00:30;;;;;;;5.20;3.50;;;7.10;99.90;;;;;;5020217;28;20028;-82
2021/05/04 02:02:55;;;;;;;5.60;2.90;;;7.10;99.90;;;;;;5018891;28;20048;-81
2021/05/04 02:05:21;;;;;;;4.88;2.80;;;7.20;99.90;;;;;;5021077;28;20033;-82
2021/05/04 02:07:47;;;;;;;5.93;3.33;;;7.10;99.90;;;;;;5036679;28;20035;-81
2021/05/04 02:10:13;;;;;;;4.65;3.13;;;7.10;99.90;;;;;;5018615;28;20025;-82
2021/05/04 02:12:40;;;;;;;5.18;3.03;;;7.30;99.90;;;;;;5036681;28;20424;-82
2021/05/04 02:15:07;;;;;;;6.18;3.30;;;7.40;99.90;;;;;;5019002;28;20132;-82
2021/05/04 02:17:32;;;;;;;7.68;3.40;;;7.50;99.90;;;;;;5038880;28;20033;-82
2021/05/04 02:19:58;;;;;;;4.53;2.80;;;7.50;99.90;;;;;;5018592;28;20025;-81
2021/05/04 02:22:23;;;;;;;4.22;2.90;;;7.40;99.90;;;;;;5019823;28;20021;-82
2021/05/04 02:24:49;;;;;;;4.25;2.88;;;7.30;99.90;;;;;;5039528;28;20028;-82
2021/05/04 02:27:15;;;;;;;6.03;2.95;;;7.30;99.90;;;;;;5041088;28;20025;-82
2021/05/04 02:29:40;;;;;;;5.85;2.90;;;7.40;99.90;;;;;;5043557;28;20032;-82
2021/05/04 02:32:06;;;;;;;4.35;2.63;;;7.30;99.90;;;;;;5038116;28;20485;-82
2021/05/04 02:34:32;;;;;;;4.78;3.00;;;7.30;99.90;;;;;;5060521;28;20028;-82
2021/05/04 02:36:58;;;;;;;5.47;3.20;;;7.40;99.90;;;;;;5067170;28;20032;-82
2021/05/04 02:39:24;;;;;;;5.22;3.28;;;7.30;99.90;;;;;;5065768;28;20021;-82
2021/05/04 02:41:49;;;;;;;7.60;3.67;;;7.30;99.90;;;;;;5065747;28;20138;-82
2021/05/04 02:44:15;;;;;;;3.92;3.13;;;7.30;99.90;;;;;;5063321;28;20032;-82
2021/05/04 02:46:41;;;;;;;5.35;3.50;;;7.30;99.90;;;;;;5063175;28;20112;-82
2021/05/04 02:49:06;;;;;;;5.95;3.10;;;7.30;99.90;;;;;;5063946;28;20029;-82
2021/05/04 02:51:32;;;;;;;5.63;2.83;;;7.20;99.90;;;;;;5064259;28;20062;-82
2021/05/04 02:53:58;;;;;;;3.92;3.17;;;7.40;99.90;;;;;;5066276;28;20040;-81
2021/05/04 02:56:24;;;;;;;6.43;3.65;;;7.50;99.90;;;;;;5067294;28;20029;-82
2021/05/04 02:58:50;;;;;;;3.70;2.72;;;7.40;99.90;;;;;;5065859;28;20496;-82
2021/05/04 03:01:16;;;;;;;5.47;3.05;;;7.40;99.90;;;;;;5064042;28;20021;-82
2021/05/04 03:03:41;;;;;;;3.80;3.22;;;7.60;99.90;;;;;;5064784;28;20050;-82
2021/05/04 03:06:07;;;;;;;4.10;3.15;;;7.60;99.90;;;;;;5062104;28;20078;-82
2021/05/04 03:08:33;;;;;;;5.40;3.20;;;7.70;99.90;;;;;;5061062;28;20028;-82
2021/05/04 03:10:59;;;;;;;5.53;3.15;;;7.70;99.90;;;;;;5060040;28;20025;-82
2021/05/04 03:13:27;;;;;;;4.03;3.13;;;7.70;99.90;;;;;;5063692;28;20021;-82
2021/05/04 03:15:53;;;;;;;6.72;2.83;;;7.60;99.90;;;;;;5063230;28;20021;-80
2021/05/04 03:18:19;;;;;;;3.92;2.83;;;7.50;99.90;;;;;;5057201;28;20049;-81
2021/05/04 03:20:46;;;;;;;5.63;2.75;;;7.60;99.90;;;;;;5060253;28;20025;-82
2021/05/04 03:23:12;;;;;;;8.82;2.80;;;7.60;99.90;;;;;;5059209;28;20029;-82
2021/05/04 03:25:37;;;;;;;4.70;2.80;;;7.60;99.90;;;;;;5062725;28;20025;-81
2021/05/04 03:28:03;;;;;;;4.20;2.90;;;7.40;99.90;;;;;;5064723;28;20021;-81
2021/05/04 03:30:29;;;;;;;8.18;3.10;;;7.40;99.90;;;;;;5060591;28;20035;-82
2021/05/04 03:32:55;;;;;;;4.82;2.97;;;7.40;99.90;;;;;;5058313;28;20045;-81
2021/05/04 03:35:22;;;;;;;4.60;2.92;;;7.50;99.90;;;;;;5063605;28;20033;-82
2021/05/04 03:37:48;;;;;;;5.03;2.95;;;7.50;99.90;;;;;;5060922;28;20393;-81
2021/05/04 03:40:14;;;;;;;3.05;2.65;;;7.60;99.90;;;;;;5062061;28;20070;-82
2021/05/04 03:42:40;;;;;;;3.10;2.40;;;7.70;99.90;;;;;;5058210;28;20044;-82
2021/05/04 03:45:07;;;;;;;5.25;2.70;;;7.80;99.90;;;;;;5060254;28;20029;-82
2021/05/04 03:47:36;;;;;;;3.90;2.33;;;7.90;99.90;;;;;;5059730;28;20480;-82
2021/05/04 03:50:03;;;;;;;2.63;2.35;;;8.00;99.90;;;;;;5061703;28;20025;-82
2021/05/04 03:52:29;;;;;;;4.50;2.70;;;8.00;99.90;;;;;;5059173;28;20078;-82
2021/05/04 03:54:55;;;;;;;3.70;2.60;;;7.80;99.90;;;;;;5057310;28;20087;-82
2021/05/04 03:57:20;;;;;;;6.57;3.10;;;7.80;99.90;;;;;;5057468;28;20021;-81
2021/05/04 03:59:46;;;;;;;5.85;2.63;;;7.90;99.90;;;;;;5055861;28;20028;-81
2021/05/04 04:02:12;;;;;;;6.60;2.30;;;7.90;99.90;;;;;;5054899;28;20473;-80
2021/05/04 04:04:38;;;;;;;3.78;2.35;;;7.90;99.90;;;;;;5056713;28;20025;-80
2021/05/04 04:07:03;;;;;;;3.60;2.47;;;8.10;99.90;;;;;;5057367;28;20025;-82
2021/05/04 04:09:29;;;;;;;2.95;2.35;;;8.10;99.90;;;;;;5055784;28;20075;-81
2021/05/04 04:11:55;;;;;;;3.10;2.17;;;8.20;99.90;;;;;;5057586;28;20033;-82
2021/05/04 04:14:21;;;;;;;2.92;2.28;;;8.30;99.90;;;;;;5055330;28;20029;-81
2021/05/04 04:16:46;;;;;;;4.03;2.30;;;8.40;99.90;;;;;;5054010;28;20029;-80
2021/05/04 04:19:13;;;;;;;2.80;2.20;;;8.40;99.90;;;;;;5055237;28;20031;-80
2021/05/04 04:21:39;;;;;;;3.90;2.35;;;8.40;99.90;;;;;;5053326;28;20021;-81
2021/05/04 04:24:04;;;;;;;3.08;2.45;;;8.40;99.90;;;;;;5054078;28;20366;-81
2021/05/04 04:26:30;;;;;;;4.07;2.35;;;8.50;99.90;;;;;;5054063;28;20036;-80
2021/05/04 04:28:56;;;;;;;4.30;2.22;;;8.40;99.90;;;;;;5055287;28;20495;-81
2021/05/04 04:31:21;;;;;;;3.28;2.53;;;8.50;99.90;;;;;;5050616;28;20075;-81
2021/05/04 04:33:47;;;;;;;3.65;2.53;;;8.50;99.90;;;;;;5018396;28;20036;-81
2021/05/04 04:36:13;;;;;;;3.67;2.55;;;8.50;99.90;;;;;;5035733;28;20025;-81
2021/05/04 04:38:38;;;;;;;4.50;2.47;;;8.50;99.90;;;;;;5018114;28;20113;-81
2021/05/04 04:41:04;;;;;;;3.90;2.50;;;8.50;99.90;;;;;;5017946;28;20061;-81
2021/05/04 04:43:30;;;;;;;8.15;2.35;;;8.40;99.90;;;;;;5018969;28;20029;-82
2021/05/04 04:45:55;;;;;;;4.13;2.40;;;8.40;99.90;;;;;;5021668;28;20042;-81
2021/05/04 04:48:21;;;;;;;5.18;2.70;;;8.40;99.90;;;;;;5038433;28;20121;-81
2021/05/04 04:50:47;;;;;;;4.47;2.67;;;8.40;99.90;;;;;;5040492;28;20530;-81
2021/05/04 04:53:13;;;;;;;3.90;2.60;;;8.50;99.90;;;;;;5039517;28;20025;-81
2021/05/04 04:55:38;;;;;;;5.97;2.45;;;8.50;99.90;;;;;;5022578;28;20154;-82
2021/05/04 04:58:04;;;;;;;3.63;2.20;;;8.50;99.90;;;;;;5021915;28;20025;-78
2021/05/04 05:00:30;;;;;;;4.57;2.42;;;8.50;99.90;;;;;;5038218;28;20028;-81
2021/05/04 05:02:55;;;;;;;4.43;2.58;;;8.50;99.90;;;;;;5020338;28;20106;-80
2021/05/04 05:05:21;;;;;;;6.75;3.00;;;8.50;99.90;;;;;;5020393;28;20036;-81
2021/05/04 05:07:47;;;;;;;5.28;2.75;;;8.50;99.90;;;;;;5037997;28;20022;-81
2021/05/04 05:10:13;;;;;;;5.00;2.65;;;8.50;99.90;;;;;;5037347;28;20097;-82
2021/05/04 05:12:39;;;;;;;3.92;2.63;;;8.60;99.90;;;;;;5020457;28;20128;-82
2021/05/04 05:15:06;;;;;;;3.47;2.50;;;8.60;99.90;;;;;;5019379;28;20021;-82
2021/05/04 05:17:32;;;;;;;3.90;2.75;;;8.60;99.90;;;;;;5037126;28;20436;-82
2021/05/04 05:19:58;;;;;;;4.97;2.33;;;8.70;99.90;;;;;;5019405;28;20071;-82
2021/05/04 05:22:27;;;;;;;3.30;2.35;;;8.70;99.90;;;;;;5036605;28;20022;-82
2021/05/04 05:24:57;;;;;;;6.47;2.50;;;8.70;99.90;;;;;;5018767;28;20492;-79
2021/05/04 05:27:23;;;;;;;4.15;2.50;;;8.70;99.90;;;;;;5018686;28;20021;-82
2021/05/04 05:29:49;;;;;;;6.75;2.22;;;8.80;99.90;;;;;;5036933;28;20033;-81
2021/05/04 05:32:15;;;;;;;3.97;2.25;;;8.70;99.90;;;;;;5035339;28;20045;-81
2021/05/04 05:34:41;;;;;;;4.53;2.67;;;8.80;99.90;;;;;;5055065;28;20112;-82
2021/05/04 05:37:07;;;;;;;4.95;2.63;;;8.90;99.90;;;;;;5055061;28;20036;-82
2021/05/04 05:39:37;;;;;;;6.18;2.70;;;8.90;99.90;;;;;;5056048;28;20021;-82
2021/05/04 05:42:04;;;;;;;4.68;2.70;;;8.90;99.90;;;;;;5054821;28;20025;-82
2021/05/04 05:44:30;;;;;;;6.70;2.35;;;8.80;99.90;;;;;;5054997;28;20385;-80
2021/05/04 05:46:56;;;;;;;4.82;2.50;;;8.90;99.90;;;;;;5054829;28;20116;-82
2021/05/04 05:49:22;;;;;;;3.45;2.30;;;9.00;99.90;;;;;;5055999;28;20060;-82
2021/05/04 05:51:47;;;;;;;5.32;2.42;;;9.10;99.90;;;;;;5056328;28;20369;-81
2021/05/04 05:54:13;;;;;;;4.18;2.47;;;9.00;99.90;;;;;;5055368;28;20029;-80
2021/05/04 05:56:39;;;;;;;6.32;2.63;;;9.10;99.90;;;;;;5054435;28;20556;-80
2021/05/04 05:59:04;;;;;;;8.45;2.58;;;9.00;99.90;;;;;;5055820;28;20027;-82
2021/05/04 06:01:30;;;;;;;4.90;2.83;;;9.10;99.90;;;;;;5054547;28;20025;-81
2021/05/04 06:03:56;;;;;;;5.47;2.65;;;9.00;99.90;;;;;;5054468;28;20021;-80
2021/05/04 06:06:22;;;;;;;6.90;2.65;;;9.10;99.90;;;;;;5054386;28;20500;-82
2021/05/04 06:08:47;;;;;;;5.97;2.03;;;9.20;99.90;;;;;;5054356;28;20020;-81
2021/05/04 06:11:13;;;;;;;3.85;2.40;;;9.30;99.90;;;;;;5054293;28;20021;-81
2021/05/04 06:13:39;;;;;;;4.75;2.38;;;9.40;99.90;;;;;;5054296;28;20075;-80
2021/05/04 06:16:05;;;;;;;3.40;2.03;;;9.40;99.90;;;;;;5055769;28;20036;-80
2021/05/04 06:18:31;;;;;;;3.22;2.03;;;9.60;99.90;;;;;;5054161;28;20437;-80
2021/05/04 06:20:57;;;;;;;6.68;2.30;;;9.80;99.90;;;;;;5055392;28;20112;-82
2021/05/04 06:23:23;;;;;;;5.28;2.08;;;9.90;99.90;;;;;;5054127;28;20116;-79
2021/05/04 06:25:49;;;;;;;5.55;1.95;;;10.20;99.90;;;;;;5055391;28;20033;-81
2021/05/04 06:28:14;;;;;;;1.50;1.40;;;10.40;99.90;;;;;;5054142;28;20029;-81
2021/05/04 06:30:40;;;;;;;3.40;1.50;;;10.80;99.90;;;;;;5055301;28;20021;-80
2021/05/04 06:33:09;;;;;;;2.15;1.35;;;10.90;99.90;;;;;;5037926;28;20048;-81
2021/05/04 06:35:38;;;;;;;4.22;1.40;;;11.10;99.90;;;;;;5017569;28;20038;-81
2021/05/04 06:38:04;;;;;;;4.85;1.60;;;11.20;99.90;;;;;;5017758;28;20032;-80
2021/05/04 06:40:31;;;;;;;4.50;1.48;;;11.30;99.90;;;;;;5017400;28;20025;-80
2021/05/04 06:42:57;;;;;;;2.80;1.35;;;11.40;99.90;;;;;;5035146;28;20089;-80
2021/05/04 06:45:23;;;;;;;5.53;1.48;;;11.60;99.90;;;;;;5017305;28;20079;-81
2021/05/04 06:47:49;;;;;;;7.00;1.52;;;11.70;99.90;;;;;;5035091;28;20025;-82
2021/05/04 06:50:15;;;;;;;3.80;1.48;;;11.70;99.90;;;;;;5035207;28;20052;-81
2021/05/04 06:52:42;;;;;;;5.85;1.50;;;11.80;99.90;;;;;;5035020;28;20027;-82
2021/05/04 06:55:08;;;;;;;9.32;1.70;;;11.90;99.90;;;;;;5017443;28;20036;-82
2021/05/04 06:57:34;;;;;;;4.72;1.83;;;12.00;99.90;;;;;;5017638;28;20473;-81
2021/05/04 07:00:00;;;;;;;4.28;1.33;;;12.10;99.90;;;;;;5017073;28;20052;-82
2021/05/04 07:02:26;;;;;;;3.92;1.85;;;12.20;99.90;;;;;;5017391;28;20025;-81
2021/05/04 07:04:52;;;;;;;3.53;1.50;;;12.30;99.90;;;;;;5034450;28;20025;-82
2021/05/04 07:07:18;;;;;;;4.35;1.40;;;12.40;99.70;;;;;;5016394;28;20021;-80
2021/05/04 07:09:44;;;;;;;7.13;1.50;;;12.60;99.20;;;;;;5034889;28;20492;-81
2021/05/04 07:15:32;;;;;;;3.88;1.40;;;12.70;98.50;;;;;;5034450;28;20044;-83
2021/05/04 07:17:58;;;;;;;3.53;1.40;;;12.90;98.40;;;;;;5034390;28;20026;-82
2021/05/04 07:20:24;;;;;;;4.57;1.33;;;12.90;97.40;;;;;;5016591;28;20026;-81
2021/05/04 07:22:54;;;;;;;5.28;1.42;;;12.90;97.30;;;;;;5016518;28;20512;-81
2021/05/04 07:25:21;;;;;;;1.40;1.20;;;13.10;97.70;;;;;;5034539;28;20473;-80
2021/05/04 07:27:47;;;;;;;4.28;1.25;;;13.20;96.90;;;;;;5016431;28;20112;-81
2021/05/04 07:30:14;;;;;;;2.45;1.50;;;13.30;97.00;;;;;;5016375;28;20037;-81
2021/05/04 07:32:41;;;;;;;4.25;1.23;;;13.30;96.60;;;;;;5039581;28;20093;-83
2021/05/04 07:35:07;;;;;;;2.28;1.20;;;13.40;97.00;;;;;;5052679;28;20396;-80
2021/05/04 07:37:38;;;;;;;3.28;1.20;;;13.50;96.30;;;;;;5053915;28;20211;-83
2021/05/04 07:40:05;;;;;;;3.00;1.30;;;13.60;96.90;;;;;;5052542;28;20098;-83
2021/05/04 07:42:30;;;;;;;2.72;1.50;;;13.60;96.20;;;;;;5052633;28;20028;-82
2021/05/04 07:44:56;;;;;;;2.90;1.20;;;13.60;95.70;;;;;;5053856;28;20392;-81
2021/05/04 07:47:22;;;;;;;3.22;1.20;;;13.80;96.00;;;;;;5053824;28;20408;-80
2021/05/04 07:49:48;;;;;;;4.95;1.60;;;13.70;95.10;;;;;;5052462;28;20025;-81
2021/05/04 07:52:15;;;;;;;1.80;1.30;;;13.80;95.00;;;;;;5053622;28;20031;-83
2021/05/04 07:54:41;;;;;;;7.43;1.25;;;13.90;94.80;;;;;;5052358;28;20039;-81
2021/05/04 07:57:07;;;;;;;1.50;1.15;;;13.80;94.40;;;;;;5053519;28;20112;-80
2021/05/04 07:59:33;;;;;;;1.70;1.30;;;13.90;95.10;;;;;;5052524;28;20439;-81
2021/05/04 08:02:01;;;;;;;3.42;1.30;;;13.90;94.50;;;;;;5054137;28;20021;-80
2021/05/04 08:04:27;;;;;;;7.03;1.42;;;14.00;93.80;;;;;;5052455;28;20025;-82
2021/05/04 08:06:53;;;;;;;3.65;1.25;;;14.00;93.80;;;;;;5053718;28;20036;-80
2021/05/04 08:09:18;;;;;;;6.60;1.52;;;14.00;93.90;;;;;;5054188;28;20020;-82
2021/05/04 08:11:44;;;;;;;5.60;1.40;;;14.10;93.90;;;;;;5053946;28;20025;-80
2021/05/04 08:14:10;;;;;;;3.25;1.00;;;14.10;93.90;;;;;;5052143;28;20128;-82
2021/05/04 08:16:37;;;;;;;6.80;1.25;;;14.30;94.20;;;;;;5051802;28;20064;-82
2021/05/04 08:19:04;;;;;;;2.50;1.30;;;14.30;93.50;;;;;;5053665;28;20026;-83
2021/05/04 08:21:34;;;;;;;3.45;1.50;;;14.10;92.80;;;;;;5052187;28;20052;-81
2021/05/04 08:24:00;;;;;;;5.00;2.35;;;14.20;93.00;;;;;;5053642;28;20020;-83
2021/05/04 08:26:26;;;;;;;3.97;1.58;;;14.10;92.90;;;;;;5053336;28;20017;-81
2021/05/04 08:28:53;;;;;;;2.10;1.25;;;14.20;93.20;;;;;;5053733;28;20526;-84
2021/05/04 08:31:19;;;;;;;8.25;1.55;;;14.10;93.20;;;;;;5049443;28;20028;-83
2021/05/04 08:33:45;;;;;;;3.55;1.40;;;14.10;92.90;;;;;;5033239;28;20095;-83
2021/05/04 08:36:11;;;;;;;10.38;1.40;;;14.00;93.10;;;;;;5033083;28;20033;-83
2021/05/04 08:38:36;;;;;;;5.65;1.40;;;14.20;93.30;;;;;;5033189;28;20474;-80
2021/05/04 08:41:06;;;;;;;4.93;1.27;;;14.20;93.10;;;;;;5015409;28;20026;-80
2021/05/04 08:43:33;;;;;;;9.43;1.40;;;14.00;92.80;;;;;;5033108;28;20108;-81
2021/05/04 08:46:00;;;;;;;4.50;1.40;;;14.00;93.20;;;;;;5033185;28;20026;-82
2021/05/04 08:48:26;;;;;;;6.72;1.30;;;14.00;93.00;;;;;;5033220;28;20470;-82
2021/05/04 08:50:53;;;;;;;4.00;1.52;;;14.20;93.50;;;;;;5015637;28;20032;-84
2021/05/04 08:53:19;;;;;;;2.75;1.45;;;14.20;93.60;;;;;;5033270;28;20021;-81
2021/05/04 08:55:45;;;;;;;2.75;1.02;;;14.10;93.00;;;;;;5015600;28;20032;-81
2021/05/04 08:58:11;;;;;;;8.05;1.20;;;14.30;93.10;;;;;;5033007;28;20436;-79
2021/05/04 09:00:37;;;;;;;2.97;1.25;;;14.40;93.10;;;;;;5032982;28;20499;-81
2021/05/04 09:03:22;;;;;;;1.60;1.00;;;14.40;92.70;;;;;;5033308;28;20030;-81
2021/05/04 09:06:02;;;;;;;3.25;1.63;;;14.40;92.70;;;;;;5033690;28;20053;-82
2021/05/04 09:09:00;;;;;;;6.85;1.30;;;14.40;92.70;;;;;;5015334;28;20407;-82
2021/05/04 09:21:35;;;;;;;7.20;1.40;;;15.10;91.40;;;;;;5032874;28;20489;-81
2021/05/04 09:24:17;;;;;;;1.83;1.23;;;15.50;91.50;;;;;;5015119;28;20017;-84
2021/05/04 09:26:43;;;;;;;4.10;1.60;;;15.80;91.10;;;;;;5032840;28;20033;-82
2021/05/04 09:29:09;;;;;;;3.47;1.10;;;15.80;90.30;;;;;;5016323;28;20524;-83
2021/05/04 09:31:37;;;;;;;3.95;1.20;;;16.10;90.30;;;;;;5024237;28;20179;-83
2021/05/04 09:34:08;;;;;;;2.55;0.93;;;16.00;89.20;;;;;;5055467;28;20024;-81
2021/05/04 09:36:42;;;;;;;6.85;1.30;;;16.10;88.70;;;;;;5055148;28;20032;-81
2021/05/04 09:39:12;;;;;;;2.88;1.48;;;15.90;86.40;;;;;;5057837;28;20063;-83
2021/05/04 09:41:38;;;;;;;2.05;1.20;;;15.90;88.00;;;;;;5055606;28;20025;-82
2021/05/04 09:44:04;;;;;;;2.88;1.42;;;15.80;88.20;;;;;;5056546;28;20021;-83
2021/05/04 09:46:47;;;;;;;4.00;1.35;;;15.90;89.40;;;;;;5055011;28;20021;-81
2021/05/04 09:49:31;;;;;;;4.25;1.30;;;15.70;85.80;;;;;;5054984;28;20056;-85
2021/05/04 09:52:36;;;;;;;1.90;1.38;;;15.60;88.80;;;;;;5054919;28;20053;-83
2021/05/04 09:55:02;;;;;;;;;;;15.80;89.30;;;;;;5055715;28;20127;-80
2021/05/04 09:57:40;;;;;;;3.47;1.13;;;15.70;89.30;;;;;;5056563;28;19998;-81
2021/05/04 10:00:11;;;;;;;2.08;1.08;;;15.60;90.10;;;;;;5056658;28;20054;-81
2021/05/04 10:02:38;;;;;;;7.47;1.40;;;15.90;90.00;;;;;;5056213;28;20028;-81
2021/05/04 10:05:07;;;;;;;5.28;1.40;;;16.00;87.60;;;;;;5055969;28;20131;-82
2021/05/04 10:07:33;;;;;;;2.45;1.60;;;15.70;87.30;;;;;;5055913;28;20032;-81
2021/05/04 10:10:00;;;;;;;4.43;1.35;;;15.40;87.30;;;;;;5054430;28;20441;-82
2021/05/04 10:12:28;;;;;;;2.03;1.20;;;15.40;86.60;;;;;;5054491;28;20025;-81
2021/05/04 10:14:59;;;;;;;2.88;1.30;;;15.50;86.50;;;;;;5054294;28;20021;-81
2021/05/04 10:17:25;;;;;;;3.15;1.50;;;16.00;86.70;;;;;;5054373;28;20425;-81
2021/05/04 10:19:52;;;;;;;4.90;1.42;;;15.90;85.80;;;;;;5054188;28;20436;-81
2021/05/04 10:22:18;;;;;;;10.00;1.23;;;15.70;86.10;;;;;;5037771;28;20021;-83
2021/05/04 10:24:45;;;;;;;3.92;1.20;;;15.80;85.60;;;;;;5055693;28;20487;-81
2021/05/04 10:27:11;;;;;;;2.78;1.17;;;15.70;86.30;;;;;;5055137;28;20032;-83
2021/05/04 10:29:38;;;;;;;2.10;1.20;;;15.80;86.50;;;;;;5054067;28;20392;-80
2021/05/04 10:32:10;;;;;;;3.55;1.27;;;15.70;86.40;;;;;;5053650;28;20492;-81
2021/05/04 10:34:36;;;;;;;1.92;1.20;;;15.70;85.90;;;;;;5055803;28;20020;-82
2021/05/04 10:37:02;;;;;;;3.03;1.40;;;15.80;86.90;;;;;;5055103;28;20044;-81
2021/05/04 10:39:40;;;;;;;2.53;1.10;;;16.00;86.20;;;;;;5054965;28;20070;-82
2021/05/04 10:42:08;;;;;;;5.57;1.48;;;16.40;86.50;;;;;;5055040;28;20021;-82
2021/05/04 10:44:53;;;;;;;5.38;1.35;;;16.50;85.50;;;;;;5053692;28;20025;-81
2021/05/04 10:47:43;;;;;;;2.03;1.35;;;16.10;84.00;;;;;;5054975;28;20024;-84
2021/05/04 10:50:11;;;;;;;5.95;1.75;;;16.10;83.60;;;;;;5053650;28;20036;-84
2021/05/04 10:52:52;;;;;;;6.28;1.42;;;16.10;82.20;;;;;;5055108;28;20033;-84
2021/05/04 10:55:53;;;;;;;3.85;1.30;;;16.50;82.80;;;;;;5053099;28;20036;-83
2021/05/04 10:58:40;;;;;;;7.60;1.40;;;17.00;81.50;;;;;;4987274;28;20029;-83
2021/05/04 11:01:09;;;;;;;8.30;1.35;;;16.50;81.80;;;;;;5053394;28;20025;-83
2021/05/04 11:03:34;;;;;;;2.15;1.30;;;16.30;81.90;;;;;;5053443;28;20025;-81
2021/05/04 11:06:09;;;;;;;4.93;1.00;;;15.90;81.60;;;;;;5054678;28;20489;-81
2021/05/04 11:08:43;;;;;;;;;;;15.80;80.80;;;;;;5055288;28;20075;-82
2021/05/04 11:11:47;;;;;;;5.15;1.30;;;16.60;82.10;;;;;;5054568;28;19909;-80
2021/05/04 11:14:16;;;;;;;2.00;0.95;;;16.70;78.90;;;;;;5054712;28;20487;-82
2021/05/04 11:16:45;;;;;;;5.53;1.15;;;16.90;80.20;;;;;;5052995;28;20021;-83
2021/05/04 11:19:18;;;;;;;1.90;1.27;;;17.40;81.00;;;;;;5054321;28;20024;-82
2021/05/04 11:21:46;;;;;;;8.20;1.40;;;16.60;78.20;;;;;;5052987;28;20025;-82
2021/05/04 11:24:17;;;;;;;3.28;1.27;;;16.40;82.00;;;;;;5052934;28;20017;-83
2021/05/04 11:26:56;;;;;;;3.78;1.30;;;16.30;83.20;;;;;;5054163;28;20073;-81
2021/05/04 11:29:37;;;;;;;7.50;1.25;;;16.40;83.10;;;;;;5054151;28;20383;-83
2021/05/04 11:32:26;;;;;;;2.33;1.50;;;16.00;82.40;;;;;;5047431;28;20053;-82
2021/05/04 11:34:52;;;;;;;2.22;1.23;;;15.90;84.00;;;;;;5034461;28;20029;-82
2021/05/04 11:37:18;;;;;;;4.75;1.40;;;15.70;86.30;;;;;;5017324;28;20076;-83
2021/05/04 11:39:51;;;;;;;4.07;1.60;;;15.60;85.60;;;;;;5034157;28;20022;-83
2021/05/04 11:42:18;;;;;;;3.65;1.48;;;15.80;85.70;;;;;;5017519;28;20503;-83
2021/05/04 11:44:46;;;;;;;3.10;1.15;;;16.00;84.90;;;;;;5035382;28;20032;-84
2021/05/04 11:47:26;;;;;;;3.92;1.30;;;16.00;86.60;;;;;;5017688;28;20374;-84
2021/05/04 11:50:12;;;;;;;5.82;1.30;;;15.80;88.30;;;;;;5035648;28;20021;-83
2021/05/04 11:52:39;;;;;;;2.92;1.15;;;15.70;88.10;;;;;;5016852;28;20051;-84
2021/05/04 11:55:10;;;;;;;2.92;1.27;;;15.50;90.40;;;;;;5017263;28;20029;-82
2021/05/04 11:57:37;;;;;;;5.65;1.75;;;15.40;91.40;;;;;;5016850;28;20021;-84
2021/05/04 12:00:08;;;;;;;4.22;1.40;;;15.40;92.60;;;;;;5018692;28;20377;-84
2021/05/04 12:02:35;;;;;;;3.45;1.38;;;15.30;92.50;;;;;;5019314;28;20429;-86
2021/05/04 12:05:01;;;;;;;3.10;1.15;;;15.20;92.20;;;;;;5036571;28;20022;-87
2021/05/04 12:07:35;;;;;;;2.55;1.20;;;14.90;92.60;;;;;;5017479;28;20017;-83
2021/05/04 12:10:05;;;;;;;5.75;1.13;;;14.50;93.00;;;;;;5034854;28;20504;-84
2021/05/04 12:12:45;;;;;;;5.80;1.50;;;14.50;94.00;;;;;;5035068;28;20065;-83
2021/05/04 12:15:17;;;;;;;5.43;1.30;;;14.50;94.80;;;;;;5035272;28;20018;-83
2021/05/04 12:17:43;;;;;;;7.50;1.38;;;14.40;95.30;;;;;;5016815;28;20025;-84
2021/05/04 12:20:17;;;;;;;4.53;1.58;;;14.30;96.80;;;;;;5016892;28;20389;-84
2021/05/04 12:22:48;;;;;;;4.47;1.40;;;14.30;98.60;;;;;;5034588;28;20503;-83
2021/05/04 12:25:16;;;;;;;4.88;1.35;;;14.30;99.30;;;;;;5034631;28;20029;-85
2021/05/04 12:27:46;;;;;;;1.88;1.23;;;14.10;99.70;;;;;;5034367;28;20021;-85
2021/05/04 12:30:15;;;;;;;7.50;1.55;;;14.10;99.90;;;;;;5017255;28;20025;-84
2021/05/04 12:32:41;;;;;;;2.50;1.60;;;13.90;99.90;;;;;;5034155;28;20079;-84
2021/05/04 12:35:18;;;;;;;7.53;1.80;;;13.60;99.90;;;;;;5016987;28;20021;-85
2021/05/04 12:37:44;;;;;;;4.50;2.22;;;13.50;99.90;;;;;;5016799;28;20014;-85
2021/05/04 12:40:15;;;;;;;5.35;1.20;;;13.40;99.90;;;;;;5016907;28;20022;-84
2021/05/04 12:42:41;;;;;;;3.55;1.30;;;13.60;99.90;;;;;;5016895;28;20388;-84
2021/05/04 12:45:10;;;;;;;3.83;1.60;;;13.50;99.90;;;;;;5034706;28;20022;-85
2021/05/04 12:47:51;;;;;;;13.85;1.58;;;13.70;99.90;;;;;;5016889;28;20025;-86
2021/05/04 12:50:31;;;;;;;2.55;1.70;;;13.80;99.90;;;;;;5034352;28;20025;-83
2021/05/04 12:52:58;;;;;;;3.83;1.42;;;13.80;99.90;;;;;;5016962;28;20025;-85
2021/05/04 12:55:24;;;;;;;4.22;1.52;;;13.70;99.90;;;;;;5015981;28;20143;-83
2021/05/04 12:58:09;;;;;;;3.88;1.45;;;13.70;99.90;;;;;;5034310;28;20025;-84
2021/05/04 13:00:35;;;;;;;2.40;1.40;;;13.60;99.90;;;;;;5016049;28;20055;-83
2021/05/04 13:03:16;;;;;;;2.95;1.17;;;13.70;99.90;;;;;;5016183;28;20064;-83
2021/05/04 13:05:42;;;;;;;3.70;1.60;;;13.80;99.90;;;;;;5019935;28;20168;-84
2021/05/04 13:08:09;;;;;;;7.18;1.58;;;13.60;99.90;;;;;;5038201;28;20057;-83
2021/05/04 13:32:15;;;;;;;3.47;1.77;;;13.30;99.90;;;;;;5030442;28;20051;-81